Time;durP1;ratioP1;P1;durP2;ratioP2;P2;SDS_P1;SDS_P2;PMS_P1;PMS_P2;Temp;Humidity;BMP_temperature;BMP_pressure;BME280_temperature;BME280_humidity;BME280_pressure;Samples;Min_cycle;Max_cycle;Signal;HPM_P1;HPM_P2
2022/12/17 13:06:52;;;;;;;34.80;12.98;;;;;;;4.04;65.30;98424.63;4395480;32;20102;-77
2022/12/17 13:09:25;;;;;;;32.05;12.93;;;;;;;3.36;67.49;98423.53;4395141;32;20592;-77
2022/12/17 13:12:03;;;;;;;38.08;13.88;;;;;;;3.57;67.37;98432.72;4395343;32;20094;-77
2022/12/17 13:14:50;;;;;;;33.15;12.35;;;;;;;4.15;65.91;98444.94;4395417;32;20079;-77
2022/12/17 13:17:16;;;;;;;31.45;13.02;;;;;;;3.26;68.34;98444.88;4394973;32;20090;-77
2022/12/17 13:20:06;;;;;;;;;;;;;;;3.24;68.82;98453.41;4395580;32;20102;-78
2022/12/17 13:22:33;;;;;;;38.80;14.38;;;;;;;3.21;68.94;98449.16;4390109;32;20304;-84
2022/12/17 13:25:16;;;;;;;39.20;15.85;;;;;;;3.59;68.16;98464.16;4396883;32;20358;-81
2022/12/17 13:27:43;;;;;;;33.20;12.77;;;;;;;2.94;70.27;98442.53;4395274;32;20102;-82
2022/12/17 13:30:16;;;;;;;38.33;14.07;;;;;;;2.56;72.77;98430.84;4394766;32;20108;-84
2022/12/17 13:33:19;;;;;;;39.15;15.38;;;;;;;2.66;73.24;98439.31;4396047;32;20086;-84
2022/12/17 13:36:08;;;;;;;40.72;15.32;;;;;;;2.14;75.58;98420.84;4394365;32;20145;-83
2022/12/17 13:38:53;;;;;;;;;;;;;;;2.30;76.50;98433.50;4395297;32;20607;-82
2022/12/17 13:41:27;;;;;;;35.35;14.10;;;;;;;2.37;76.11;98433.50;4394948;32;20317;-82
2022/12/17 13:43:58;;;;;;;39.70;15.80;;;;;;;2.46;75.58;98457.22;4393767;32;20090;-83
2022/12/17 13:46:35;;;;;;;34.55;12.82;;;;;;;2.84;73.31;98454.47;4394110;32;20253;-83
2022/12/17 13:49:03;;;;;;;37.95;13.52;;;;;;;2.32;74.17;98454.69;4395244;32;20106;-82
2022/12/17 13:51:33;;;;;;;33.30;12.05;;;;;;;2.30;75.17;98445.38;4394340;32;20113;-82
2022/12/17 13:54:02;;;;;;;30.17;10.32;;;;;;;2.50;73.43;98443.63;4395232;32;20105;-82
2022/12/17 13:56:30;;;;;;;30.77;11.80;;;;;;;2.30;73.44;98458.12;4394980;32;20117;-82
2022/12/17 13:59:01;;;;;;;29.48;13.15;;;;;;;2.04;75.57;98453.13;4394737;32;20166;-82
2022/12/17 14:01:43;;;;;;;32.17;12.82;;;;;;;1.53;77.67;98456.56;4394854;32;20436;-82
2022/12/17 14:04:19;;;;;;;34.53;13.03;;;;;;;2.39;73.75;98457.25;4393918;32;20506;-82
2022/12/17 14:06:46;;;;;;;32.28;11.98;;;;;;;2.25;74.08;98459.84;4393488;32;20670;-82
2022/12/17 14:09:16;;;;;;;30.73;12.10;;;;;;;1.26;78.20;98455.69;4394962;32;20102;-82
2022/12/17 14:14:33;;;;;;;37.63;13.77;;;;;;;1.59;78.12;98477.75;4394922;32;20090;-82
2022/12/17 14:17:00;;;;;;;34.38;12.77;;;;;;;2.32;74.83;98482.72;4394863;32;20079;-82
2022/12/17 14:19:28;;;;;;;34.45;12.25;;;;;;;1.83;76.22;98476.06;4394498;32;20094;-82
2022/12/17 14:21:55;;;;;;;32.25;12.15;;;;;;;1.69;78.16;98515.03;4394864;32;20116;-84
2022/12/17 14:24:25;;;;;;;40.85;14.18;;;;;;;1.88;77.46;98535.41;4393702;32;20083;-84
2022/12/17 14:26:55;;;;;;;34.40;12.95;;;;;;;2.30;75.12;98537.06;4393435;32;20109;-84
2022/12/17 14:29:29;;;;;;;34.53;14.10;;;;;;;1.77;76.99;98555.75;4394722;32;20099;-84
2022/12/17 14:31:59;;;;;;;36.67;13.40;;;;;;;1.91;77.13;98571.03;4393521;32;20106;-84
2022/12/17 14:34:28;;;;;;;37.22;14.85;;;;;;;2.15;75.53;98572.72;4394460;32;20495;-84
2022/12/17 14:36:57;;;;;;;30.88;13.55;;;;;;;2.07;77.11;98587.16;4393477;32;20083;-84
2022/12/17 14:39:27;;;;;;;30.10;11.50;;;;;;;1.54;77.50;98582.87;4394744;32;20095;-84
2022/12/17 14:45:05;;;;;;;30.08;11.98;;;;;;;1.96;76.21;98604.97;4393786;32;20090;-84
2022/12/17 14:47:33;;;;;;;34.38;12.37;;;;;;;1.86;76.60;98606.66;4393166;32;20552;-84
2022/12/17 14:50:05;;;;;;;33.97;12.48;;;;;;;2.00;76.16;98599.88;4393313;32;20449;-84
2022/12/17 14:52:42;;;;;;;35.17;11.70;;;;;;;1.94;76.46;98586.31;4394335;32;20101;-84
2022/12/17 14:55:30;;;;;;;35.22;14.27;;;;;;;2.00;76.66;98597.31;4393258;32;20082;-84
2022/12/17 14:58:12;;;;;;;37.83;13.85;;;;;;;2.20;75.09;98616.84;4394447;32;20073;-84
2022/12/17 15:00:43;;;;;;;37.65;13.70;;;;;;;1.82;77.28;98620.25;4394469;32;20098;-84
2022/12/17 15:03:18;;;;;;;28.83;11.10;;;;;;;1.62;77.82;98640.53;4393035;32;20114;-84
2022/12/17 15:05:55;;;;;;;37.53;12.80;;;;;;;1.84;76.67;98640.59;4393382;32;20098;-84
2022/12/17 15:08:22;;;;;;;34.83;13.45;;;;;;;1.25;79.92;98647.19;4394125;32;20105;-84
2022/12/17 15:10:49;;;;;;;24.95;9.68;;;;;;;1.32;79.77;98668.41;4394171;32;20464;-84
2022/12/17 15:13:16;;;;;;;;;;;;;;;2.14;75.92;98658.44;4394630;32;20102;-84
2022/12/17 15:15:43;;;;;;;38.28;12.73;;;;;;;1.45;78.73;98652.34;4394068;32;19974;-84
2022/12/17 15:18:09;;;;;;;;;;;;;;;1.29;79.38;98665.88;4393328;32;20225;-84
2022/12/17 15:20:36;;;;;;;32.10;11.57;;;;;;;1.48;78.48;98657.44;4394164;32;20578;-84
2022/12/17 15:23:03;;;;;;;35.03;14.55;;;;;;;1.36;79.25;98681.13;4394010;32;20182;-84
2022/12/17 15:25:30;;;;;;;;;;;;;;;1.50;79.27;98698.16;4394418;32;20086;-84
2022/12/17 15:27:57;;;;;;;46.03;14.00;;;;;;;1.63;77.38;98694.81;4394101;32;19970;-84
2022/12/17 15:30:23;;;;;;;;;;;;;;;1.78;76.84;98712.66;4393953;32;20102;-84
2022/12/17 15:32:50;;;;;;;33.65;13.13;;;;;;;1.59;77.33;98709.19;4394178;32;20000;-84
2022/12/17 15:35:17;;;;;;;;;;;;;;;1.85;76.19;98711.00;4394272;32;20105;-84
2022/12/17 15:37:44;;;;;;;28.80;10.98;;;;;;;1.41;78.64;98702.38;4393632;32;19980;-84
2022/12/17 15:40:11;;;;;;;;;;;;;;;1.57;78.12;98717.66;4394211;32;20435;-83
2022/12/17 15:45:31;;;;;;;30.08;12.50;;;;;;;1.49;78.06;98709.16;4393986;32;20086;-84
2022/12/17 15:47:58;;;;;;;;;;;;;;;1.59;78.65;98719.38;4394192;32;20078;-84
2022/12/17 15:50:25;;;;;;;31.37;11.55;;;;;;;1.76;77.00;98727.06;4393467;32;19970;-84
2022/12/17 15:52:52;;;;;;;33.05;11.75;;;;;;;1.35;78.85;98721.81;4393555;32;20449;-84
2022/12/17 15:55:18;;;;;;;;;;;;;;;1.06;81.01;98729.28;4394127;32;20140;-84
2022/12/17 15:57:45;;;;;;;36.65;14.05;;;;;;;1.94;77.70;98737.31;4394373;32;19978;-84
2022/12/17 16:00:12;;;;;;;;;;;;;;;1.52;79.20;98740.56;4396065;32;20437;-84
2022/12/17 16:02:39;;;;;;;33.92;12.93;;;;;;;1.56;78.44;98749.88;4395838;32;20048;-84
2022/12/17 16:05:07;;;;;;;23.55;9.15;;;;;;;2.08;75.54;98755.16;4395390;32;20428;-84
2022/12/17 16:07:34;;;;;;;30.10;12.73;;;;;;;1.83;76.22;98761.03;4395850;32;20151;-84
2022/12/17 16:10:01;;;;;;;33.47;13.52;;;;;;;1.70;77.65;98755.91;4395765;32;20099;-84
2022/12/17 16:12:31;;;;;;;34.67;12.95;;;;;;;1.84;77.11;98763.56;4395497;32;20097;-84
2022/12/17 16:14:58;;;;;;;33.83;12.95;;;;;;;2.07;76.00;98767.88;4395812;32;20136;-84
2022/12/17 16:17:25;;;;;;;;;;;;;;;1.82;76.88;98772.91;4395978;32;20113;-84
2022/12/17 16:19:52;;;;;;;41.30;15.55;;;;;;;2.33;74.48;98782.34;4395326;32;19982;-84
2022/12/17 16:22:18;;;;;;;;;;;;;;;2.31;74.61;98783.19;4395958;32;20117;-84
2022/12/17 16:24:45;;;;;;;37.40;13.20;;;;;;;1.91;76.02;98782.25;4395756;32;20008;-84
2022/12/17 16:27:13;;;;;;;34.88;11.57;;;;;;;1.63;77.95;98786.38;4395460;32;20559;-84
2022/12/17 16:29:40;;;;;;;35.13;12.98;;;;;;;1.58;78.32;98796.53;4395625;32;20523;-84
2022/12/17 16:32:06;;;;;;;;;;;;;;;1.91;76.60;98788.19;4395847;32;20157;-84
2022/12/17 16:34:33;;;;;;;35.55;12.90;;;;;;;1.85;77.16;98794.97;4395599;32;19989;-84
2022/12/17 16:37:00;;;;;;;42.58;15.57;;;;;;;2.01;76.32;98799.25;4395647;32;20101;-84
2022/12/17 16:39:27;;;;;;;26.65;9.90;;;;;;;1.75;78.48;98796.63;4395183;32;20587;-84
2022/12/17 16:41:54;;;;;;;31.87;11.98;;;;;;;1.61;77.47;98796.56;4395580;32;20434;-84
2022/12/17 16:44:21;;;;;;;;;;;;;;;1.31;79.83;98802.31;4395795;32;20101;-84
2022/12/17 16:46:48;;;;;;;35.47;13.32;;;;;;;1.84;76.94;98805.97;4395252;32;19966;-84
2022/12/17 16:49:22;;;;;;;36.78;12.30;;;;;;;2.25;74.38;98806.13;4395651;32;20113;-84
2022/12/17 16:51:50;;;;;;;33.92;13.27;;;;;;;1.53;76.45;98810.91;4395012;32;20090;-84
2022/12/17 16:54:23;;;;;;;23.73;10.02;;;;;;;1.54;76.76;98812.63;4395275;32;20090;-84
2022/12/17 16:56:49;;;;;;;35.15;13.18;;;;;;;1.21;79.30;98820.03;4395439;32;20097;-84
2022/12/17 16:59:17;;;;;;;37.92;13.32;;;;;;;1.62;77.94;98831.31;4395464;32;20082;-84
2022/12/17 17:01:46;;;;;;;32.70;12.85;;;;;;;2.35;73.13;98840.09;4394921;32;20094;-84
2022/12/17 17:04:15;;;;;;;37.78;14.05;;;;;;;3.31;68.92;98835.94;4395464;32;20224;-84
2022/12/17 17:06:48;;;;;;;31.12;12.43;;;;;;;2.50;70.29;98845.22;4395439;32;20464;-84
2022/12/17 17:09:15;;;;;;;35.75;13.55;;;;;;;1.97;74.02;98835.72;4394232;32;20134;-84
2022/12/17 17:11:42;;;;;;;34.00;12.98;;;;;;;2.50;72.12;98848.63;4395197;32;20117;-84
2022/12/17 17:14:16;;;;;;;32.90;13.88;;;;;;;2.50;72.50;98856.25;4395108;32;20455;-84
2022/12/17 17:16:43;;;;;;;32.78;13.48;;;;;;;1.99;73.76;98852.69;4395233;32;20428;-84
2022/12/17 17:19:10;;;;;;;26.10;9.02;;;;;;;2.58;71.62;98863.94;4395262;32;20102;-84
2022/12/17 17:21:39;;;;;;;34.45;12.50;;;;;;;2.48;71.65;98863.06;4387830;32;229230;-84
2022/12/17 17:24:10;;;;;;;41.60;14.70;;;;;;;2.45;72.75;98865.59;4395207;32;20101;-84
2022/12/17 17:26:44;;;;;;;35.35;12.77;;;;;;;2.45;72.12;98870.69;4395397;32;20078;-84
2022/12/17 17:29:10;;;;;;;;;;;;;;;2.15;74.08;98862.97;4395285;32;20121;-84
2022/12/17 17:31:37;;;;;;;34.67;11.07;;;;;;;2.30;72.02;98865.53;4395085;32;20457;-84
2022/12/17 17:34:24;;;;;;;29.80;10.90;;;;;;;2.99;69.55;98881.84;4394126;32;20106;-84
2022/12/17 17:36:51;;;;;;;;;;;;;;;2.41;71.63;98873.22;4395168;32;20087;-84
2022/12/17 17:39:18;;;;;;;32.55;12.05;;;;;;;1.90;73.58;98867.91;4395357;32;19978;-84
2022/12/17 17:41:45;;;;;;;27.85;10.75;;;;;;;2.50;71.67;98885.97;4395084;32;20549;-84
2022/12/17 17:44:12;;;;;;;;;;;;;;;2.10;73.46;98882.44;4395081;32;20145;-84
2022/12/17 17:46:39;;;;;;;35.87;13.03;;;;;;;1.70;74.53;98900.03;4395305;32;19970;-84
2022/12/17 17:49:07;;;;;;;33.30;12.10;;;;;;;2.14;72.10;98904.53;4395057;32;20102;-84
2022/12/17 17:51:36;;;;;;;31.60;12.05;;;;;;;2.29;72.24;98904.59;4394470;32;20095;-84
2022/12/17 17:54:23;;;;;;;34.40;12.70;;;;;;;1.72;73.87;98903.47;4394785;32;20120;-84
2022/12/17 17:56:50;;;;;;;32.25;12.75;;;;;;;3.02;69.76;98902.22;4394719;32;20075;-84
2022/12/17 17:59:18;;;;;;;;;;;;;;;2.11;73.02;98910.44;4395362;32;20086;-84
2022/12/17 18:01:48;;;;;;;24.45;9.70;;;;;;;1.39;77.30;98904.09;4395097;32;20020;-84
2022/12/17 18:04:20;;;;;;;33.40;11.75;;;;;;;1.63;76.75;98900.84;4394792;32;20162;-84
2022/12/17 18:06:47;;;;;;;25.73;10.05;;;;;;;1.98;74.24;98912.09;4395082;32;20479;-84
2022/12/17 18:09:34;;;;;;;23.03;9.93;;;;;;;1.91;74.67;98910.34;4395035;32;20098;-82
2022/12/17 18:13:53;;;;;;;;;;;;;;;1.03;78.06;98922.41;4394984;32;20176;-82
2022/12/17 18:14:47;;;;;;;29.63;11.70;;;;;;;2.16;74.26;98931.69;4394048;32;20410;-82
2022/12/17 18:17:34;;;;;;;30.02;10.27;;;;;;;1.71;75.95;98932.28;4394507;32;20382;-82
2022/12/17 18:20:01;;;;;;;;;;;;;;;2.13;73.22;98934.25;4394757;32;20441;-82
2022/12/17 18:22:28;;;;;;;30.05;10.50;;;;;;;1.48;76.15;98934.66;4394918;32;19996;-82
2022/12/17 18:24:54;;;;;;;;;;;;;;;1.93;73.61;98935.81;4394821;32;20094;-82
2022/12/17 18:27:21;;;;;;;22.95;9.90;;;;;;;1.79;74.74;98947.59;4393834;32;19962;-82
2022/12/17 18:29:48;;;;;;;;;;;;;;;2.11;71.78;98952.88;4395108;32;20129;-82
2022/12/17 18:32:15;;;;;;;25.85;10.77;;;;;;;2.51;71.12;98956.47;4394547;32;19977;-84
2022/12/17 18:34:42;;;;;;;32.78;11.40;;;;;;;1.65;75.11;98961.06;4398452;32;20105;-84
2022/12/17 18:37:09;;;;;;;28.75;11.70;;;;;;;2.47;70.53;98965.78;4394398;32;20094;-85
2022/12/17 18:39:36;;;;;;;28.23;10.60;;;;;;;2.18;72.63;98965.66;4394352;32;20098;-85
2022/12/17 18:44:48;;;;;;;26.92;8.32;;;;;;;3.22;66.65;98983.00;4394740;32;20090;-85
2022/12/17 18:47:15;;;;;;;24.52;7.72;;;;;;;2.82;66.96;98990.56;4394451;32;20086;-83
2022/12/17 18:49:42;;;;;;;28.77;9.93;;;;;;;2.24;70.18;98993.72;4394462;32;20426;-84
2022/12/17 18:52:09;;;;;;;27.90;10.93;;;;;;;2.03;72.18;98998.66;4394347;32;20719;-81
2022/12/17 18:54:42;;;;;;;21.35;7.37;;;;;;;1.66;74.70;99000.09;4394251;32;20086;-81
2022/12/17 18:57:09;;;;;;;25.17;9.68;;;;;;;2.08;71.75;99002.09;4394519;32;20086;-81
2022/12/17 18:59:37;;;;;;;28.70;10.82;;;;;;;1.56;74.10;99006.78;4394154;32;20152;-81
2022/12/17 19:02:04;;;;;;;22.05;8.30;;;;;;;1.44;75.77;99009.22;4393307;32;20095;-81
2022/12/17 19:04:31;;;;;;;27.95;10.27;;;;;;;1.52;74.98;99017.78;4394440;32;20083;-81
2022/12/17 19:06:58;;;;;;;25.52;8.95;;;;;;;1.02;79.15;99014.75;4394057;32;20090;-81
2022/12/17 19:09:30;;;;;;;;;;;;;;;1.67;75.72;98996.69;4394746;32;20140;-81
2022/12/17 19:11:57;;;;;;;24.35;9.68;;;;;;;1.83;75.21;99000.22;4393156;32;19985;-81
2022/12/17 19:14:24;;;;;;;22.37;8.80;;;;;;;0.81;79.78;98995.87;4394022;32;20090;-81
2022/12/17 19:16:53;;;;;;;19.92;7.28;;;;;;;0.82;80.11;99005.19;4393153;32;20078;-81
2022/12/17 19:19:21;;;;;;;34.65;11.63;;;;;;;0.81;79.85;99000.97;4394210;32;20117;-81
2022/12/17 19:21:48;;;;;;;18.55;6.80;;;;;;;0.65;81.57;99014.34;4393634;32;20116;-81
2022/12/17 19:24:17;;;;;;;25.05;9.55;;;;;;;0.53;82.13;99027.72;4392950;32;20109;-81
2022/12/17 19:26:44;;;;;;;23.17;8.55;;;;;;;0.86;80.83;99022.22;4394177;32;20445;-81
2022/12/17 19:29:12;;;;;;;21.98;8.50;;;;;;;0.67;81.86;99009.25;4392632;32;20441;-81
2022/12/17 19:31:39;;;;;;;24.92;9.57;;;;;;;0.18;83.84;99034.00;4393984;32;20479;-81
2022/12/17 19:34:10;;;;;;;30.15;11.80;;;;;;;0.55;82.54;99038.75;4396051;32;20386;-81
2022/12/17 19:36:37;;;;;;;26.33;10.07;;;;;;;0.60;81.27;99036.25;4395765;32;20173;-81
2022/12/17 19:39:06;;;;;;;31.45;11.05;;;;;;;0.85;79.42;99038.28;4395896;32;20113;-81
2022/12/17 19:41:33;;;;;;;25.42;9.52;;;;;;;0.79;79.37;99045.81;4395818;32;20160;-81
2022/12/17 19:44:05;;;;;;;21.30;8.30;;;;;;;0.91;79.03;99046.81;4396093;32;20094;-81
2022/12/17 19:46:33;;;;;;;20.55;8.32;;;;;;;1.13;78.11;99051.28;4395996;32;20078;-81
2022/12/17 19:49:01;;;;;;;25.15;8.65;;;;;;;0.80;79.34;99055.16;4395669;32;20141;-81
2022/12/17 19:51:29;;;;;;;23.67;9.63;;;;;;;1.06;77.65;99062.22;4395598;32;20240;-81
2022/12/17 19:53:56;;;;;;;27.45;9.05;;;;;;;0.93;79.01;99060.38;4394848;32;20086;-81
2022/12/17 19:56:32;;;;;;;26.50;10.02;;;;;;;0.65;79.96;99070.22;4395635;32;20110;-81
2022/12/17 19:59:02;;;;;;;25.27;9.45;;;;;;;0.98;79.63;99074.84;4395781;32;20152;-81
2022/12/17 20:01:35;;;;;;;21.83;7.65;;;;;;;1.11;77.91;99076.69;4395496;32;20102;-81
2022/12/17 20:04:03;;;;;;;26.17;9.38;;;;;;;1.06;78.48;99087.63;4395664;32;20170;-81
2022/12/17 20:06:32;;;;;;;20.33;8.13;;;;;;;1.49;76.69;99098.25;4395840;32;20444;-81
2022/12/17 20:08:59;;;;;;;24.73;8.60;;;;;;;1.77;75.50;99097.69;4395819;32;20094;-81
2022/12/17 20:11:32;;;;;;;25.52;10.40;;;;;;;0.70;78.37;99099.06;4395214;32;20714;-81
2022/12/17 20:14:16;;;;;;;30.88;11.65;;;;;;;1.35;77.18;99105.75;4394795;32;20098;-81
2022/12/17 20:16:51;;;;;;;20.52;7.93;;;;;;;0.62;80.35;99099.78;4395642;32;20075;-81
2022/12/17 20:19:21;;;;;;;24.60;9.95;;;;;;;1.14;77.32;99107.22;4395671;32;20095;-81
2022/12/17 20:21:48;;;;;;;27.55;10.43;;;;;;;1.10;77.41;99100.41;4395590;32;20252;-81
2022/12/17 20:24:16;;;;;;;27.77;8.98;;;;;;;0.99;77.07;99117.22;4394234;32;20117;-81
2022/12/17 20:26:43;;;;;;;27.17;10.35;;;;;;;1.19;77.00;99114.06;4395760;32;20079;-81
2022/12/17 20:29:11;;;;;;;29.75;10.60;;;;;;;1.04;78.15;99117.25;4395730;32;20161;-81
2022/12/17 20:31:38;;;;;;;27.10;9.93;;;;;;;0.48;80.31;99128.38;4393972;32;20106;-81
2022/12/17 20:34:07;;;;;;;22.92;9.15;;;;;;;0.32;81.21;99133.19;4395747;32;20098;-81
2022/12/17 20:36:34;;;;;;;26.65;9.52;;;;;;;0.81;79.71;99129.69;4395560;32;20074;-81
2022/12/17 20:39:02;;;;;;;30.42;10.57;;;;;;;0.77;79.04;99138.09;4395202;32;20087;-81
2022/12/17 20:41:30;;;;;;;21.15;7.70;;;;;;;1.30;76.59;99137.94;4395383;32;20098;-81
2022/12/17 20:43:57;;;;;;;27.52;10.23;;;;;;;1.43;75.30;99140.63;4395538;32;20101;-81
2022/12/17 20:46:24;;;;;;;30.90;10.40;;;;;;;0.85;77.75;99145.00;4394062;32;20105;-81
2022/12/17 20:48:51;;;;;;;26.40;10.38;;;;;;;0.76;78.21;99147.41;4395517;32;20109;-81
2022/12/17 20:51:22;;;;;;;28.67;11.63;;;;;;;1.23;76.79;99151.38;4394053;32;20101;-81
2022/12/17 20:53:50;;;;;;;25.10;8.00;;;;;;;1.34;75.25;99155.75;4395128;32;20091;-81
2022/12/17 20:56:20;;;;;;;24.45;9.52;;;;;;;0.86;78.09;99158.56;4395458;32;20374;-81
2022/12/17 20:58:51;;;;;;;28.95;9.27;;;;;;;0.96;77.47;99155.31;4395148;32;20576;-81
2022/12/17 21:01:20;;;;;;;31.75;12.23;;;;;;;0.81;79.45;99158.47;4393957;32;20109;-81
2022/12/17 21:03:49;;;;;;;28.62;10.25;;;;;;;0.78;78.68;99168.59;4395495;32;20505;-81
2022/12/17 21:06:20;;;;;;;24.30;9.50;;;;;;;0.45;79.84;99161.34;4395124;32;20087;-81
2022/12/17 21:08:50;;;;;;;17.42;5.90;;;;;;;1.43;75.72;99168.59;4395491;32;20555;-81
2022/12/17 21:11:19;;;;;;;23.48;9.40;;;;;;;1.00;77.57;99174.84;4395140;32;20440;-81
2022/12/17 21:13:46;;;;;;;22.58;9.23;;;;;;;0.83;77.82;99186.44;4395154;32;20148;-81
2022/12/17 21:16:17;;;;;;;27.83;9.85;;;;;;;0.61;78.85;99172.56;4395356;32;20551;-81
2022/12/17 21:18:44;;;;;;;25.88;9.23;;;;;;;0.69;78.95;99176.09;4395362;32;20094;-81
2022/12/17 21:21:13;;;;;;;;;;;;;;;0.88;78.80;99186.53;4395216;32;20164;-81
2022/12/17 21:23:40;;;;;;;28.38;10.73;;;;;;;0.26;81.12;99189.81;4395468;32;19974;-81
2022/12/17 21:26:10;;;;;;;27.40;9.82;;;;;;;0.92;78.07;99198.44;4395210;32;20082;-81
2022/12/17 21:28:40;;;;;;;29.23;10.07;;;;;;;1.01;77.30;99199.41;4393980;32;20161;-81
2022/12/17 21:31:23;;;;;;;23.48;8.85;;;;;;;0.77;78.52;99206.69;4394066;32;20125;-81
2022/12/17 21:33:52;;;;;;;26.87;9.38;;;;;;;1.12;76.13;99205.50;4393854;32;20120;-81
2022/12/17 21:36:21;;;;;;;23.92;10.25;;;;;;;0.41;78.93;99192.56;4395291;32;20090;-81
2022/12/17 21:38:48;;;;;;;30.25;10.10;;;;;;;0.70;78.57;99193.03;4393977;32;20173;-81
2022/12/17 21:41:20;;;;;;;26.70;10.65;;;;;;;0.32;80.85;99196.66;4393617;32;20090;-81
2022/12/17 21:43:51;;;;;;;18.42;6.57;;;;;;;0.44;79.82;99196.88;4395337;32;20124;-81
2022/12/17 21:46:18;;;;;;;23.95;9.45;;;;;;;0.46;80.23;99205.38;4394094;32;20083;-81
2022/12/17 21:48:45;;;;;;;23.77;8.60;;;;;;;0.39;80.32;99199.31;4393742;32;20124;-81
2022/12/17 21:51:13;;;;;;;30.88;11.50;;;;;;;0.33;80.64;99200.94;4395009;32;20099;-81
2022/12/17 21:53:42;;;;;;;34.45;12.45;;;;;;;0.75;78.31;99204.12;4395002;32;20086;-81
2022/12/17 21:56:15;;;;;;;25.65;9.15;;;;;;;0.77;78.41;99205.00;4392870;32;20116;-81
2022/12/17 21:58:43;;;;;;;24.27;9.98;;;;;;;0.47;78.88;99214.69;4395100;32;20129;-81
2022/12/17 22:01:22;;;;;;;23.30;9.05;;;;;;;0.94;76.97;99219.62;4394767;32;20106;-81
2022/12/17 22:03:50;;;;;;;29.37;11.45;;;;;;;0.97;76.56;99204.44;4394861;32;20090;-81
2022/12/17 22:06:22;;;;;;;33.13;12.00;;;;;;;0.56;79.04;99209.75;4395103;32;20086;-81
2022/12/17 22:08:51;;;;;;;30.62;9.65;;;;;;;0.94;77.56;99205.22;4395095;32;20160;-81
2022/12/17 22:11:24;;;;;;;32.47;10.63;;;;;;;0.85;76.20;99210.19;4393749;32;20125;-81
2022/12/17 22:14:11;;;;;;;25.12;10.52;;;;;;;1.15;75.39;99214.84;4395003;32;20081;-81
2022/12/17 22:16:47;;;;;;;29.33;10.65;;;;;;;0.78;77.11;99218.56;4394688;32;20078;-81
2022/12/17 22:19:19;;;;;;;29.20;9.80;;;;;;;0.90;77.09;99223.81;4393714;32;20091;-81
2022/12/17 22:21:49;;;;;;;31.17;11.80;;;;;;;0.38;79.30;99220.47;4393744;32;20110;-81
2022/12/17 22:24:21;;;;;;;28.55;10.65;;;;;;;0.90;76.89;99228.91;4394639;32;20090;-81
2022/12/17 22:26:48;;;;;;;31.58;10.82;;;;;;;0.56;77.52;99227.53;4394833;32;20101;-81
2022/12/17 22:32:58;;;;;;;;;;;;;;;0.28;79.82;99233.84;4395195;32;20098;-81
2022/12/17 22:34:48;;;;;;;25.95;9.85;;;;;;;-0.07;80.80;99243.38;4394855;32;20601;-81
2022/12/17 22:37:35;;;;;;;26.25;9.90;;;;;;;0.17;79.60;99238.72;4394718;32;20109;-81
2022/12/17 22:40:22;;;;;;;19.52;6.45;;;;;;;0.18;79.89;99240.44;4394566;32;20098;-81
2022/12/17 22:43:28;;;;;;;24.60;8.48;;;;;;;-0.10;81.60;99236.56;4394847;32;20133;-81
2022/12/17 22:46:15;;;;;;;27.75;10.57;;;;;;;-0.55;83.25;99244.09;4393697;32;20114;-81
2022/12/17 22:48:43;;;;;;;25.95;8.60;;;;;;;-0.07;81.79;99256.91;4394624;32;20161;-81
2022/12/17 22:51:10;;;;;;;25.60;9.80;;;;;;;0.42;79.18;99254.37;4394192;32;20124;-81
2022/12/17 22:53:41;;;;;;;27.02;8.65;;;;;;;0.42;78.12;99257.75;4394340;32;20140;-81
2022/12/17 22:56:09;;;;;;;26.75;9.85;;;;;;;-0.09;79.42;99253.50;4394570;32;20449;-81
2022/12/17 22:58:56;;;;;;;22.52;8.95;;;;;;;0.55;77.84;99254.63;4394402;32;20109;-81
2022/12/17 23:01:23;;;;;;;26.67;10.00;;;;;;;1.04;75.23;99267.22;4394220;32;20154;-81
2022/12/17 23:03:54;;;;;;;26.90;9.52;;;;;;;1.04;75.49;99262.13;4394522;32;20094;-81
2022/12/17 23:06:22;;;;;;;21.65;9.05;;;;;;;0.20;78.71;99258.22;4393535;32;20105;-81
2022/12/17 23:08:49;;;;;;;27.33;10.10;;;;;;;0.92;76.10;99270.44;4393939;32;20156;-81
2022/12/17 23:11:22;;;;;;;22.67;9.27;;;;;;;0.61;75.91;99258.06;4394122;32;20102;-81
2022/12/17 23:13:50;;;;;;;23.98;9.73;;;;;;;0.66;75.94;99266.63;4380567;32;20090;-81
2022/12/17 23:16:18;;;;;;;24.35;9.25;;;;;;;0.23;78.65;99273.53;4380700;32;20082;-81
2022/12/17 23:18:46;;;;;;;20.70;9.13;;;;;;;0.58;77.35;99267.34;4394225;32;20082;-81
2022/12/17 23:21:19;;;;;;;25.00;9.30;;;;;;;0.00;78.55;99275.66;4393718;32;20515;-81
2022/12/17 23:23:46;;;;;;;27.60;10.32;;;;;;;0.46;78.38;99274.78;4394301;32;20108;-81
2022/12/17 23:26:16;;;;;;;;;;;;;;;0.37;77.54;99278.84;4394284;32;20101;-81
2022/12/17 23:28:44;;;;;;;25.20;8.23;;;;;;;0.74;76.10;99287.91;4394209;32;19965;-81
2022/12/17 23:31:16;;;;;;;21.95;8.35;;;;;;;0.27;77.98;99298.97;4393827;32;20106;-81
2022/12/17 23:33:44;;;;;;;27.42;9.77;;;;;;;0.75;74.42;99297.28;4393801;32;20103;-81
2022/12/17 23:36:13;;;;;;;28.27;10.10;;;;;;;1.64;71.85;99287.53;4380467;32;20109;-81
2022/12/17 23:38:40;;;;;;;30.62;9.18;;;;;;;1.36;72.47;99293.09;4393891;32;20075;-81
2022/12/17 23:41:10;;;;;;;25.37;9.60;;;;;;;0.45;76.24;99295.06;4393555;32;20098;-81
2022/12/17 23:43:38;;;;;;;26.55;9.52;;;;;;;0.73;76.54;99306.53;4393985;32;20148;-81
2022/12/17 23:46:06;;;;;;;23.38;8.60;;;;;;;0.68;76.05;99309.00;4393895;32;20098;-81
2022/12/17 23:48:36;;;;;;;20.88;7.95;;;;;;;0.22;76.77;99307.34;4393650;32;20078;-81
2022/12/17 23:51:10;;;;;;;25.88;9.18;;;;;;;0.61;75.28;99309.72;4393671;32;20441;-81
2022/12/17 23:53:38;;;;;;;23.02;8.45;;;;;;;1.14;73.75;99317.34;4393746;32;20109;-81
2022/12/17 23:56:11;;;;;;;20.10;7.78;;;;;;;1.00;73.85;99309.53;4367538;32;20094;-81
2022/12/17 23:58:40;;;;;;;18.05;7.75;;;;;;;0.77;74.89;99316.78;4393567;32;20082;-81
